Bierbeek, Belgium
Current Conditions -  °F | °C
As of 6:25 PM on Sunday 28 Dec 2014 (Local Time) from EBBE Reporting Station
Clear Clear  
Wind Chill: 25°   Ceiling: Unl
Heat Index: 25°   Visibility: 6mi
Dew Point: 19°   Wind: 3mph
Humidity: 80%   Direction: 350°N
Pressure: 30.48"   Gusts: NA
Location:  50.83°N, 4.76°E
Report Text: EBBE 281725Z AUTO 35003KT 9999 NCD M04/M07 Q1032 BLU
Loading
Personal Weather Stations






























Interactive Weather Map New forecast layout! Learn more

10-Day Weather Forecast

Advertisements
Track Severe Weather on mobile